Time;durP1;ratioP1;P1;durP2;ratioP2;P2;SDS_P1;SDS_P2;PMS_P1;PMS_P2;Temp;Humidity;BMP_temperature;BMP_pressure;BME280_temperature;BME280_humidity;BME280_pressure;Samples;Min_cycle;Max_cycle;Signal;HPM_P1;HPM_P2
2022/05/26 00:00:27;;;;;;;4.40;4.10;;;15.90;99.90;;;;;;5035614;28;20551;-66
2022/05/26 00:02:53;;;;;;;4.20;4.00;;;15.90;99.90;;;;;;5053368;28;20254;-66
2022/05/26 00:05:18;;;;;;;4.30;4.10;;;15.80;99.90;;;;;;5053099;28;20175;-66
2022/05/26 00:07:44;;;;;;;5.00;3.97;;;15.80;99.90;;;;;;5053474;28;20191;-66
2022/05/26 00:10:10;;;;;;;4.60;4.20;;;15.80;99.90;;;;;;5053718;28;20643;-65
2022/05/26 00:12:36;;;;;;;4.10;3.90;;;15.80;99.90;;;;;;5053579;28;20217;-67
2022/05/26 00:15:03;;;;;;;4.70;4.40;;;15.80;99.90;;;;;;5052756;28;20676;-66
2022/05/26 00:17:29;;;;;;;4.43;4.20;;;15.90;99.90;;;;;;5053146;28;20195;-66
2022/05/26 00:19:54;;;;;;;4.30;4.10;;;15.80;99.90;;;;;;5035140;28;20608;-67
2022/05/26 00:22:20;;;;;;;4.00;3.80;;;15.80;99.90;;;;;;5035381;28;20220;-66
2022/05/26 00:24:47;;;;;;;4.00;3.80;;;15.90;99.90;;;;;;5052387;28;20190;-65
2022/05/26 00:27:13;;;;;;;4.27;3.97;;;15.80;99.90;;;;;;5053248;28;20185;-65
2022/05/26 00:29:39;;;;;;;4.20;4.00;;;15.90;99.90;;;;;;5052674;28;20179;-66
2022/05/26 00:32:06;;;;;;;4.23;4.03;;;15.90;99.90;;;;;;5053090;28;20170;-66
2022/05/26 00:34:32;;;;;;;4.70;4.37;;;15.90;99.90;;;;;;5034500;28;20520;-66
2022/05/26 00:36:58;;;;;;;5.33;4.23;;;15.90;99.90;;;;;;5034904;28;20181;-66
2022/05/26 00:39:25;;;;;;;4.20;4.00;;;15.90;99.90;;;;;;5052765;28;20260;-66
2022/05/26 00:42:01;;;;;;;4.43;4.20;;;15.90;99.90;;;;;;5034897;28;20213;-65
2022/05/26 00:44:28;;;;;;;4.73;4.33;;;15.90;99.90;;;;;;5052483;28;20700;-65
2022/05/26 00:46:57;;;;;;;4.50;4.30;;;15.80;99.90;;;;;;5052567;28;20253;-66
2022/05/26 00:49:35;;;;;;;4.40;4.10;;;15.80;99.90;;;;;;5034792;28;20191;-67
2022/05/26 00:52:02;;;;;;;4.27;4.07;;;15.80;99.90;;;;;;5033050;28;20176;-65
2022/05/26 00:54:29;;;;;;;4.70;4.50;;;15.80;99.90;;;;;;5032439;28;20206;-66
2022/05/26 00:56:57;;;;;;;4.47;4.27;;;15.80;99.90;;;;;;5051818;28;20178;-66
2022/05/26 01:00:14;;;;;;;4.67;4.47;;;15.80;99.90;;;;;;5052488;28;20191;-66
2022/05/26 01:02:56;;;;;;;4.70;4.50;;;15.80;99.90;;;;;;5007797;28;20198;-66
2022/05/26 01:05:25;;;;;;;4.83;4.57;;;15.80;99.90;;;;;;5034044;28;20185;-66
2022/05/26 01:07:51;;;;;;;4.53;4.33;;;15.70;99.90;;;;;;5052334;28;20194;-66
2022/05/26 01:10:17;;;;;;;4.07;3.80;;;15.70;99.90;;;;;;5034529;28;20197;-66
2022/05/26 01:12:43;;;;;;;4.43;4.13;;;15.70;99.90;;;;;;5051865;28;20175;-66
2022/05/26 01:15:15;;;;;;;4.27;4.07;;;15.70;99.90;;;;;;5051705;28;20628;-66
2022/05/26 01:17:53;;;;;;;4.00;3.80;;;15.60;99.90;;;;;;5051745;28;20252;-66
2022/05/26 01:20:39;;;;;;;4.60;4.40;;;15.60;99.90;;;;;;5052117;28;20171;-66
2022/05/26 01:24:00;;;;;;;4.50;4.30;;;15.60;99.90;;;;;;5051818;28;20167;-66
2022/05/26 01:26:49;;;;;;;4.50;4.30;;;15.60;99.90;;;;;;4974165;28;20177;-66
2022/05/26 01:29:39;;;;;;;4.37;4.17;;;15.60;99.90;;;;;;5031141;28;20203;-66
2022/05/26 01:32:26;;;;;;;4.20;4.00;;;15.70;99.90;;;;;;5052029;28;20332;-66
2022/05/26 01:35:21;;;;;;;4.20;4.00;;;15.70;99.90;;;;;;5050951;28;20563;-66
2022/05/26 01:38:18;;;;;;;4.90;4.50;;;15.70;99.90;;;;;;5051432;28;20226;-66
2022/05/26 01:40:58;;;;;;;4.50;4.30;;;15.60;99.90;;;;;;5051636;28;20197;-67
2022/05/26 01:43:41;;;;;;;4.40;4.20;;;15.60;99.90;;;;;;5051240;28;20163;-66
2022/05/26 01:46:22;;;;;;;4.80;4.50;;;15.70;99.90;;;;;;5050784;28;20171;-66
2022/05/26 01:48:56;;;;;;;5.07;4.67;;;15.60;99.90;;;;;;5051212;28;20698;-66
2022/05/26 01:51:33;;;;;;;6.23;5.20;;;15.60;99.90;;;;;;5051707;28;20175;-66
2022/05/26 01:54:11;;;;;;;4.50;4.30;;;15.60;99.90;;;;;;5051020;28;20202;-67
2022/05/26 01:57:05;;;;;;;4.53;4.33;;;15.70;99.90;;;;;;5033438;28;20628;-66
2022/05/26 01:59:39;;;;;;;4.40;4.20;;;15.60;99.90;;;;;;5051547;28;20191;-67
2022/05/26 02:02:11;;;;;;;4.50;4.20;;;15.60;99.90;;;;;;5051783;28;20260;-66
2022/05/26 02:04:42;;;;;;;4.33;4.13;;;15.60;99.90;;;;;;5050966;28;20171;-66
2022/05/26 02:07:21;;;;;;;4.13;3.93;;;15.60;99.90;;;;;;5051452;28;20317;-66
2022/05/26 02:09:49;;;;;;;4.70;4.40;;;15.60;99.90;;;;;;5051241;28;20229;-67
2022/05/26 02:12:35;;;;;;;4.73;4.43;;;15.60;99.90;;;;;;5051358;28;20254;-66
2022/05/26 02:15:12;;;;;;;5.13;4.83;;;15.50;99.90;;;;;;5050613;28;20351;-66
2022/05/26 02:17:47;;;;;;;4.60;4.40;;;15.30;99.90;;;;;;5050753;28;20229;-67
2022/05/26 02:20:26;;;;;;;5.23;4.90;;;15.10;99.90;;;;;;5033307;28;20526;-67
2022/05/26 02:23:16;;;;;;;4.40;4.20;;;14.90;99.90;;;;;;5033095;28;20171;-67
2022/05/26 02:25:42;;;;;;;5.43;5.03;;;14.70;99.90;;;;;;5032850;28;20190;-67
2022/05/26 02:28:10;;;;;;;4.80;4.60;;;14.50;99.90;;;;;;5051231;28;20193;-68
2022/05/26 02:30:39;;;;;;;5.23;4.93;;;14.40;99.90;;;;;;5033154;28;20220;-66
2022/05/26 02:33:08;;;;;;;5.13;4.93;;;14.40;99.90;;;;;;5033214;28;20202;-66
2022/05/26 02:35:38;;;;;;;6.03;5.63;;;14.40;99.90;;;;;;5050410;28;20289;-66
2022/05/26 02:38:15;;;;;;;5.40;5.00;;;14.40;99.90;;;;;;5051024;28;20187;-66
2022/05/26 02:40:42;;;;;;;5.37;5.03;;;14.40;99.90;;;;;;5050846;28;20247;-66
2022/05/26 02:43:13;;;;;;;5.30;5.00;;;14.40;99.90;;;;;;5051033;28;20175;-67
2022/05/26 02:45:58;;;;;;;5.60;5.30;;;14.50;99.90;;;;;;5050436;28;20257;-66
2022/05/26 02:49:00;;;;;;;5.97;5.47;;;14.50;99.90;;;;;;5051018;28;20194;-66
2022/05/26 02:51:37;;;;;;;5.80;5.50;;;14.60;99.90;;;;;;5031193;28;20186;-65
2022/05/26 02:54:30;;;;;;;5.63;5.13;;;14.60;99.90;;;;;;5031269;28;20171;-67
2022/05/26 02:57:20;;;;;;;5.00;4.60;;;14.60;99.90;;;;;;5032845;28;20183;-67
2022/05/26 03:00:03;;;;;;;4.90;4.70;;;14.70;99.90;;;;;;5050937;28;20332;-66
2022/05/26 03:02:57;;;;;;;5.10;4.80;;;14.70;99.90;;;;;;5050640;28;20300;-66
2022/05/26 03:05:50;;;;;;;5.23;4.97;;;14.60;99.90;;;;;;5050584;28;20178;-65
2022/05/26 03:08:19;;;;;;;5.17;4.93;;;14.70;99.90;;;;;;5032706;28;20675;-67
2022/05/26 03:10:51;;;;;;;5.57;5.27;;;14.70;99.90;;;;;;5032230;28;20552;-66
2022/05/26 03:13:17;;;;;;;5.50;5.13;;;14.80;99.90;;;;;;5050435;28;20699;-67
2022/05/26 03:15:43;;;;;;;6.13;5.73;;;14.80;99.90;;;;;;5050643;28;20230;-67
2022/05/26 03:18:09;;;;;;;6.10;5.70;;;14.90;99.90;;;;;;5050417;28;20678;-67
2022/05/26 03:20:35;;;;;;;5.57;5.27;;;14.90;99.90;;;;;;5050652;28;20167;-66
2022/05/26 03:23:02;;;;;;;5.40;5.10;;;14.90;99.90;;;;;;5050392;28;20232;-67
2022/05/26 03:25:27;;;;;;;5.30;4.80;;;14.90;99.90;;;;;;5032553;28;20267;-67
2022/05/26 03:27:53;;;;;;;5.60;5.30;;;14.90;99.90;;;;;;5050304;28;20805;-67
2022/05/26 03:30:19;;;;;;;5.90;5.40;;;15.00;99.90;;;;;;5033501;28;20178;-67
2022/05/26 03:32:46;;;;;;;5.50;5.07;;;15.00;99.90;;;;;;5053888;28;20179;-67
2022/05/26 03:40:57;;;;;;;5.47;5.03;;;15.00;99.90;;;;;;5053907;28;20177;-67
2022/05/26 03:43:32;;;;;;;5.87;5.40;;;15.00;99.90;;;;;;5053541;28;20202;-64
2022/05/26 03:45:59;;;;;;;5.30;5.00;;;15.00;99.90;;;;;;5053953;28;20182;-66
2022/05/26 03:48:27;;;;;;;5.87;5.47;;;15.00;99.90;;;;;;5053709;28;20199;-67
2022/05/26 03:50:52;;;;;;;5.23;4.93;;;15.10;99.90;;;;;;5035755;28;20171;-66
2022/05/26 03:53:18;;;;;;;5.23;4.97;;;15.10;99.90;;;;;;5053433;28;20553;-66
2022/05/26 03:55:43;;;;;;;5.40;5.00;;;15.10;99.90;;;;;;5053422;28;20203;-67
2022/05/26 03:58:10;;;;;;;6.33;5.27;;;15.10;99.90;;;;;;5035646;28;20229;-67
2022/05/26 04:00:35;;;;;;;5.60;5.10;;;15.10;99.90;;;;;;5053944;28;20171;-67
2022/05/26 04:03:01;;;;;;;5.50;5.17;;;15.10;99.90;;;;;;5053225;28;20186;-67
2022/05/26 04:05:27;;;;;;;5.10;4.83;;;15.10;99.90;;;;;;5053393;28;20182;-66
2022/05/26 04:07:53;;;;;;;5.40;4.90;;;15.00;99.90;;;;;;5035313;28;20256;-67
2022/05/26 04:10:19;;;;;;;5.47;4.97;;;15.10;99.90;;;;;;5053597;28;20163;-66
2022/05/26 04:12:45;;;;;;;5.47;5.07;;;15.10;99.90;;;;;;5035480;28;20178;-67
2022/05/26 04:15:13;;;;;;;6.10;5.03;;;15.10;99.90;;;;;;5052774;28;20234;-66
2022/05/26 04:17:39;;;;;;;6.10;5.43;;;15.10;99.90;;;;;;5071680;22;20561;-63
2022/05/26 04:20:07;;;;;;;6.00;5.60;;;15.10;99.90;;;;;;5032133;28;20250;-64
2022/05/26 04:22:33;;;;;;;6.13;5.63;;;15.00;99.90;;;;;;5033794;28;20643;-64
2022/05/26 04:24:59;;;;;;;8.80;5.87;;;15.00;99.90;;;;;;5032817;28;20237;-64
2022/05/26 04:27:30;;;;;;;6.03;5.43;;;15.00;99.90;;;;;;5033462;28;20203;-65
2022/05/26 04:29:56;;;;;;;5.73;5.33;;;15.10;99.90;;;;;;5013461;28;20219;-64
2022/05/26 04:32:22;;;;;;;6.63;6.13;;;15.10;99.90;;;;;;5013783;28;20757;-64
2022/05/26 04:34:49;;;;;;;6.00;5.47;;;15.10;99.90;;;;;;5012816;28;20219;-65
2022/05/26 04:37:16;;;;;;;5.70;5.30;;;15.10;99.90;;;;;;5013457;28;20167;-64
2022/05/26 04:39:42;;;;;;;6.47;5.93;;;15.00;99.90;;;;;;5013102;28;20196;-63
2022/05/26 04:42:08;;;;;;;6.63;5.60;;;15.00;99.90;;;;;;5013025;28;20179;-64
2022/05/26 04:44:38;;;;;;;7.17;5.60;;;15.10;99.90;;;;;;5012676;28;20183;-64
2022/05/26 04:47:04;;;;;;;7.03;6.27;;;15.10;99.90;;;;;;5013356;28;20225;-64
2022/05/26 04:49:31;;;;;;;6.30;5.70;;;15.10;99.90;;;;;;5013142;28;20207;-65
2022/05/26 04:51:57;;;;;;;7.87;6.00;;;15.10;99.90;;;;;;5011761;28;20207;-65
2022/05/26 04:54:23;;;;;;;6.60;6.20;;;15.20;99.90;;;;;;5012845;28;20191;-65
2022/05/26 04:56:49;;;;;;;6.90;6.17;;;15.20;99.90;;;;;;5012616;28;20204;-65
2022/05/26 04:59:15;;;;;;;6.30;5.90;;;15.10;99.90;;;;;;5013025;28;20200;-64
2022/05/26 05:01:41;;;;;;;6.00;5.60;;;15.20;99.90;;;;;;5013122;28;20165;-64
2022/05/26 05:04:07;;;;;;;5.67;5.27;;;15.20;99.90;;;;;;5012792;28;20594;-65
2022/05/26 05:06:33;;;;;;;11.13;5.93;;;15.20;99.90;;;;;;5012710;28;20183;-65
2022/05/26 05:08:59;;;;;;;8.03;6.60;;;15.30;99.90;;;;;;5012682;28;20200;-64
2022/05/26 05:11:24;;;;;;;6.30;5.80;;;15.30;99.90;;;;;;5012776;28;20168;-63
2022/05/26 05:13:50;;;;;;;6.97;6.37;;;15.30;99.90;;;;;;5012471;28;20176;-65
2022/05/26 05:16:26;;;;;;;6.70;6.10;;;15.40;99.90;;;;;;5012461;28;20342;-65
2022/05/26 05:18:52;;;;;;;6.13;5.57;;;15.40;99.90;;;;;;5012501;28;20207;-64
2022/05/26 05:21:22;;;;;;;6.67;5.93;;;15.50;99.90;;;;;;5012416;28;20713;-65
2022/05/26 05:23:56;;;;;;;6.70;6.10;;;15.40;99.90;;;;;;5012303;28;20172;-65
2022/05/26 05:26:23;;;;;;;6.60;6.07;;;15.50;99.90;;;;;;5012527;28;20298;-65
2022/05/26 05:29:05;;;;;;;6.40;5.90;;;15.50;99.90;;;;;;5012545;28;20206;-64
2022/05/26 05:31:39;;;;;;;10.10;6.67;;;15.60;99.90;;;;;;5012276;28;20717;-64
2022/05/26 05:34:17;;;;;;;6.13;5.47;;;15.70;99.90;;;;;;5012392;28;20179;-65
2022/05/26 05:36:44;;;;;;;5.60;5.30;;;15.60;99.90;;;;;;5012010;28;20214;-64
2022/05/26 05:39:10;;;;;;;6.30;5.70;;;15.70;99.90;;;;;;5012285;28;20224;-63
2022/05/26 05:41:36;;;;;;;5.57;5.17;;;15.70;99.90;;;;;;5010996;28;20215;-65
2022/05/26 05:44:04;;;;;;;6.33;5.77;;;15.90;99.90;;;;;;5012146;28;20262;-64
2022/05/26 05:46:53;;;;;;;6.40;5.90;;;15.90;99.90;;;;;;5012055;28;20168;-64
2022/05/26 05:49:20;;;;;;;6.07;5.60;;;15.90;99.90;;;;;;4992853;28;20694;-64
2022/05/26 05:51:46;;;;;;;5.87;5.57;;;16.00;99.90;;;;;;4995501;28;20168;-65
2022/05/26 05:54:11;;;;;;;6.90;5.40;;;15.90;99.90;;;;;;5011330;28;20198;-64
2022/05/26 05:56:38;;;;;;;8.00;5.77;;;15.80;99.90;;;;;;5012037;28;20204;-66
2022/05/26 05:59:04;;;;;;;7.37;6.30;;;15.80;99.90;;;;;;5012345;28;20188;-65
2022/05/26 06:01:30;;;;;;;5.47;5.17;;;15.90;99.90;;;;;;5012549;28;20174;-65
2022/05/26 06:03:56;;;;;;;8.30;6.00;;;15.90;99.90;;;;;;5010229;28;20238;-66
2022/05/26 06:06:21;;;;;;;6.37;5.97;;;15.90;99.90;;;;;;5011983;28;20576;-65
2022/05/26 06:08:47;;;;;;;11.33;6.90;;;16.10;99.90;;;;;;5011524;28;20246;-67
2022/05/26 06:11:13;;;;;;;7.13;6.10;;;16.40;99.90;;;;;;5011940;28;20681;-67
2022/05/26 06:13:38;;;;;;;9.93;5.80;;;16.60;99.90;;;;;;5011186;28;20526;-63
2022/05/26 06:16:04;;;;;;;6.10;5.60;;;16.90;99.90;;;;;;5011893;28;20299;-66
2022/05/26 06:18:31;;;;;;;6.27;5.80;;;17.20;99.90;;;;;;5011462;28;20252;-63
2022/05/26 06:21:05;;;;;;;6.83;5.93;;;17.40;99.90;;;;;;5011223;28;20682;-64
2022/05/26 06:23:31;;;;;;;6.37;5.77;;;17.60;99.90;;;;;;5011220;28;20176;-63
2022/05/26 06:25:58;;;;;;;7.23;5.70;;;17.70;99.90;;;;;;5011866;28;20184;-64
2022/05/26 06:31:08;;;;;;;7.30;5.97;;;17.50;99.90;;;;;;5011745;28;20485;-65
2022/05/26 06:39:03;;;;;;;7.03;6.37;;;17.60;99.90;;;;;;5011218;28;20250;-65
2022/05/26 06:44:13;;;;;;;6.07;5.50;;;17.70;99.90;;;;;;5010913;28;20315;-66
2022/05/26 06:46:39;;;;;;;6.47;5.73;;;17.50;99.90;;;;;;5011248;28;20188;-66
2022/05/26 06:49:04;;;;;;;6.30;5.70;;;17.60;99.90;;;;;;5010900;28;20214;-65
2022/05/26 06:51:31;;;;;;;6.97;5.90;;;17.80;99.90;;;;;;5011529;28;20693;-66
2022/05/26 06:53:56;;;;;;;6.90;6.23;;;17.80;99.90;;;;;;5010941;28;20184;-65
2022/05/26 06:56:22;;;;;;;6.33;5.60;;;17.80;99.90;;;;;;5010928;28;20644;-65
2022/05/26 06:58:47;;;;;;;6.30;5.80;;;17.80;99.90;;;;;;5011905;28;20204;-65
2022/05/26 07:01:14;;;;;;;6.40;5.90;;;17.40;99.90;;;;;;5011142;28;20173;-64
2022/05/26 07:03:41;;;;;;;7.47;6.20;;;17.50;99.90;;;;;;5010854;28;20613;-65
2022/05/26 07:06:28;;;;;;;7.00;4.93;;;17.80;99.90;;;;;;5014633;28;20179;-65
2022/05/26 07:08:53;;;;;;;5.70;4.80;;;18.40;99.90;;;;;;5014774;28;20690;-65
2022/05/26 07:11:19;;;;;;;5.23;4.93;;;18.80;99.90;;;;;;5014499;28;20266;-65
2022/05/26 07:13:45;;;;;;;5.40;4.90;;;18.80;99.90;;;;;;5014465;28;20226;-65
2022/05/26 07:16:12;;;;;;;8.30;6.33;;;18.90;99.90;;;;;;5014524;28;20212;-65
2022/05/26 07:18:39;;;;;;;5.10;4.70;;;19.20;99.90;;;;;;5014810;28;20244;-65
2022/05/26 07:21:06;;;;;;;7.20;5.50;;;19.50;99.90;;;;;;5014918;28;20176;-66
2022/05/26 07:23:33;;;;;;;6.73;5.70;;;19.60;99.90;;;;;;5013582;28;20218;-65
2022/05/26 07:25:58;;;;;;;6.83;4.97;;;19.70;99.90;;;;;;5013339;28;20191;-66
2022/05/26 07:28:25;;;;;;;8.83;5.40;;;20.00;99.90;;;;;;5010450;28;20197;-65
2022/05/26 07:30:52;;;;;;;5.47;5.07;;;20.00;99.90;;;;;;5014749;28;20533;-66
2022/05/26 07:33:19;;;;;;;4.80;4.40;;;20.40;99.90;;;;;;5014499;28;20180;-65
2022/05/26 07:35:45;;;;;;;5.50;5.00;;;20.30;99.90;;;;;;5013986;28;20211;-64
2022/05/26 07:43:41;;;;;;;6.33;4.17;;;19.80;99.90;;;;;;4995686;28;20189;-66
2022/05/26 07:46:07;;;;;;;4.87;4.33;;;20.40;99.90;;;;;;5013710;28;20556;-64
2022/05/26 07:48:33;;;;;;;4.90;4.50;;;20.90;99.90;;;;;;5013812;28;20192;-63
2022/05/26 07:50:58;;;;;;;5.25;4.90;;;20.70;99.90;;;;;;5014302;28;20188;-65
2022/05/26 07:53:24;;;;;;;4.70;4.30;;;21.00;99.90;;;;;;5005122;28;20279;-65
2022/05/26 07:55:50;;;;;;;4.65;4.25;;;21.60;99.90;;;;;;4994265;28;20616;-67
2022/05/26 07:58:15;;;;;;;7.50;4.72;;;22.30;99.90;;;;;;5002245;28;20204;-65
2022/05/26 08:00:41;;;;;;;3.85;3.53;;;22.40;99.90;;;;;;5013794;28;20592;-65
2022/05/26 08:03:07;;;;;;;5.63;4.55;;;22.00;99.90;;;;;;5013751;28;20192;-64
2022/05/26 08:05:33;;;;;;;4.35;4.03;;;21.50;99.90;;;;;;5013438;28;20188;-65
2022/05/26 08:07:59;;;;;;;6.40;3.97;;;21.20;99.90;;;;;;5013239;28;20208;-65
2022/05/26 08:10:25;;;;;;;4.97;3.75;;;21.20;99.90;;;;;;5012906;28;20184;-64
2022/05/26 08:12:51;;;;;;;4.70;4.22;;;21.60;99.90;;;;;;5029924;28;20195;-65
2022/05/26 08:15:17;;;;;;;4.82;3.90;;;22.20;99.90;;;;;;4996725;28;20671;-64
2022/05/26 08:17:43;;;;;;;5.82;4.00;;;22.40;99.90;;;;;;4993629;28;20177;-65
2022/05/26 08:20:10;;;;;;;7.25;3.97;;;22.60;99.90;;;;;;5013726;28;20698;-65
2022/05/26 08:22:36;;;;;;;4.18;3.85;;;22.30;99.90;;;;;;5013432;28;20180;-65
2022/05/26 08:25:02;;;;;;;7.00;4.15;;;21.70;99.90;;;;;;5012028;28;20180;-65
2022/05/26 08:27:28;;;;;;;4.93;3.80;;;21.40;99.90;;;;;;5013547;28;20184;-65
2022/05/26 08:29:54;;;;;;;3.80;3.50;;;21.90;99.90;;;;;;5013404;28;20226;-65
2022/05/26 08:32:21;;;;;;;5.40;4.00;;;22.00;99.90;;;;;;5013127;28;20238;-64
2022/05/26 08:34:47;;;;;;;5.53;3.72;;;22.00;99.90;;;;;;5012917;28;20602;-66
2022/05/26 08:37:19;;;;;;;5.28;3.63;;;22.30;99.90;;;;;;5012905;28;20215;-66
2022/05/26 08:39:45;;;;;;;8.55;3.70;;;22.80;99.90;;;;;;5012951;28;20200;-66
2022/05/26 08:42:35;;;;;;;3.88;3.60;;;23.00;99.90;;;;;;5012849;28;20180;-66
2022/05/26 08:45:06;;;;;;;4.47;4.18;;;22.70;99.90;;;;;;5012331;28;20184;-66
2022/05/26 08:47:40;;;;;;;4.30;3.90;;;21.90;99.90;;;;;;5012884;28;20191;-65
2022/05/26 08:50:14;;;;;;;5.55;3.83;;;22.30;99.90;;;;;;4993784;28;20177;-65
2022/05/26 08:52:57;;;;;;;3.83;3.55;;;22.30;99.90;;;;;;5002242;28;20815;-66
2022/05/26 08:55:49;;;;;;;5.50;4.00;;;22.00;99.90;;;;;;5012705;28;20262;-66
2022/05/26 08:58:18;;;;;;;4.63;4.20;;;21.90;99.90;;;;;;5013029;28;20200;-66
2022/05/26 09:00:46;;;;;;;4.70;4.23;;;22.00;99.90;;;;;;5013098;28;20172;-66
2022/05/26 09:03:21;;;;;;;4.63;4.23;;;21.70;99.90;;;;;;5012459;28;20540;-66
2022/05/26 09:05:53;;;;;;;4.10;3.80;;;21.20;99.90;;;;;;5012697;28;20271;-65
2022/05/26 09:13:58;;;;;;;6.17;5.20;;;20.10;99.90;;;;;;4993036;28;20195;-66
2022/05/26 09:16:28;;;;;;;4.70;4.30;;;20.10;99.90;;;;;;5004399;28;20675;-66
2022/05/26 09:19:15;;;;;;;4.13;3.87;;;20.60;99.90;;;;;;5012106;28;20219;-66
2022/05/26 09:21:42;;;;;;;5.05;3.45;;;21.70;99.90;;;;;;5012288;28;20183;-66
2022/05/26 09:24:17;;;;;;;3.67;3.47;;;22.80;99.90;;;;;;5012550;28;20640;-65
2022/05/26 09:26:46;;;;;;;5.35;3.63;;;23.40;99.90;;;;;;5012143;28;20667;-65
2022/05/26 09:29:12;;;;;;;4.10;3.78;;;23.00;99.90;;;;;;5012238;28;20188;-65
2022/05/26 09:31:48;;;;;;;5.28;4.25;;;22.60;99.90;;;;;;5011957;28;20184;-65
2022/05/26 09:34:14;;;;;;;3.80;3.45;;;22.30;99.90;;;;;;5012109;28;20176;-65
2022/05/26 09:36:48;;;;;;;5.05;3.90;;;22.40;99.90;;;;;;5011565;28;20265;-65
2022/05/26 09:39:17;;;;;;;4.18;3.80;;;22.20;99.90;;;;;;5011801;28;20670;-66
2022/05/26 09:41:46;;;;;;;4.35;3.95;;;22.60;99.90;;;;;;5012540;28;20807;-64
2022/05/26 09:44:20;;;;;;;3.70;3.50;;;22.80;99.90;;;;;;5011536;28;20187;-65
2022/05/26 09:46:51;;;;;;;4.22;3.58;;;23.00;99.90;;;;;;5011825;28;20614;-65
2022/05/26 09:49:24;;;;;;;6.70;4.18;;;22.70;99.90;;;;;;5009974;28;20218;-65
2022/05/26 09:51:50;;;;;;;5.88;3.17;;;22.90;99.90;;;;;;5011899;28;20266;-66
2022/05/26 09:54:29;;;;;;;6.30;3.90;;;23.10;99.90;;;;;;5011507;28;20660;-65
2022/05/26 09:56:55;;;;;;;5.68;3.70;;;23.30;99.90;;;;;;5011864;28;20204;-65
2022/05/26 09:59:30;;;;;;;4.45;3.75;;;23.00;99.90;;;;;;5011780;28;20560;-65
2022/05/26 10:02:09;;;;;;;5.40;4.45;;;23.20;99.90;;;;;;5011485;28;20203;-65
2022/05/26 10:04:52;;;;;;;4.20;3.83;;;23.70;99.90;;;;;;5011529;28;20538;-66
2022/05/26 10:07:42;;;;;;;4.22;3.83;;;24.20;99.90;;;;;;5011419;28;20186;-65
2022/05/26 10:10:22;;;;;;;4.05;3.75;;;23.20;99.90;;;;;;5011666;28;20223;-65
2022/05/26 10:13:18;;;;;;;4.78;3.83;;;22.50;99.90;;;;;;5011459;28;20635;-65
2022/05/26 10:16:08;;;;;;;3.95;3.53;;;23.00;99.90;;;;;;5011085;28;20207;-65
2022/05/26 10:19:24;;;;;;;4.03;3.60;;;23.40;99.90;;;;;;5052470;22;20222;-65
2022/05/26 10:22:02;;;;;;;4.80;3.75;;;23.20;99.90;;;;;;5075036;28;20670;-65
2022/05/26 10:24:39;;;;;;;3.75;3.45;;;23.10;99.90;;;;;;5090587;28;20636;-65
2022/05/26 10:27:17;;;;;;;3.40;3.17;;;23.20;99.90;;;;;;5082710;28;20265;-66
2022/05/26 10:30:31;;;;;;;5.57;3.70;;;23.30;99.90;;;;;;5070617;28;20232;-65
2022/05/26 10:33:15;;;;;;;4.10;3.80;;;23.50;99.90;;;;;;5060698;28;20285;-65
2022/05/26 10:35:59;;;;;;;3.85;3.60;;;23.70;99.90;;;;;;5069432;28;20615;-65
2022/05/26 10:39:00;;;;;;;3.83;3.53;;;23.80;99.90;;;;;;5070880;28;20558;-65
2022/05/26 10:41:34;;;;;;;4.50;3.35;;;23.10;99.90;;;;;;5053679;28;20190;-65
2022/05/26 10:44:35;;;;;;;3.50;3.20;;;22.50;99.90;;;;;;5053356;28;20551;-66
2022/05/26 10:47:12;;;;;;;3.40;3.10;;;23.70;99.90;;;;;;5052240;28;20185;-66
2022/05/26 10:49:45;;;;;;;3.60;3.40;;;25.00;99.90;;;;;;5074641;28;20243;-65
2022/05/26 10:52:31;;;;;;;5.18;3.00;;;25.70;99.90;;;;;;5074813;28;20225;-66
2022/05/26 10:55:05;;;;;;;3.47;2.97;;;26.20;99.90;;;;;;5074201;28;20266;-65
2022/05/26 10:57:38;;;;;;;3.38;3.17;;;26.40;99.90;;;;;;5074717;28;20174;-65
2022/05/26 11:00:13;;;;;;;3.88;3.60;;;25.60;99.90;;;;;;5074576;28;20278;-65
2022/05/26 11:02:53;;;;;;;3.42;3.00;;;25.10;99.90;;;;;;5074828;28;20170;-65
2022/05/26 11:05:43;;;;;;;2.90;2.80;;;25.10;99.90;;;;;;5074100;28;20231;-65
2022/05/26 11:08:24;;;;;;;3.78;3.47;;;24.90;99.90;;;;;;5074518;28;20189;-65
2022/05/26 11:11:09;;;;;;;4.00;3.70;;;24.90;99.90;;;;;;5074214;28;20206;-65
2022/05/26 11:13:42;;;;;;;3.63;3.42;;;24.20;99.90;;;;;;5073930;28;20780;-65
2022/05/26 11:19:39;;;;;;;3.50;3.20;;;24.30;99.90;;;;;;5073905;28;20259;-65
2022/05/26 11:22:04;;;;;;;4.00;3.25;;;24.10;99.90;;;;;;5074407;28;20170;-65
2022/05/26 11:24:31;;;;;;;3.20;2.90;;;23.90;99.90;;;;;;5072847;28;20224;-65
2022/05/26 11:26:57;;;;;;;3.42;3.22;;;24.30;99.90;;;;;;5074480;28;20174;-65
2022/05/26 11:29:37;;;;;;;3.65;3.03;;;24.60;99.90;;;;;;5073691;28;20213;-65
2022/05/26 11:38:35;;;;;;;3.78;3.47;;;23.70;99.90;;;;;;5075248;28;20189;-66
2022/05/26 11:41:01;;;;;;;3.92;3.47;;;23.00;99.90;;;;;;5068858;28;20271;-65
2022/05/26 11:43:38;;;;;;;3.72;3.33;;;22.70;99.90;;;;;;5073373;28;20236;-66
2022/05/26 11:46:07;;;;;;;3.30;3.10;;;23.20;99.90;;;;;;5074541;28;20539;-65
2022/05/26 11:48:33;;;;;;;3.40;3.13;;;23.40;99.90;;;;;;5073262;28;20190;-65
2022/05/26 11:51:26;;;;;;;3.92;3.58;;;23.50;99.90;;;;;;5072629;28;20748;-64
2022/05/26 11:53:51;;;;;;;3.35;3.15;;;22.80;99.90;;;;;;5073344;28;20174;-65
2022/05/26 11:56:26;;;;;;;4.05;3.75;;;22.40;99.90;;;;;;5073684;28;20262;-65
2022/05/26 11:59:21;;;;;;;3.80;3.50;;;21.90;99.90;;;;;;5072973;28;20196;-65
2022/05/26 12:01:59;;;;;;;4.03;3.80;;;21.60;99.90;;;;;;5054636;28;20182;-65
2022/05/26 12:04:30;;;;;;;3.50;3.30;;;21.60;99.90;;;;;;5073301;28;20170;-65
2022/05/26 12:07:00;;;;;;;3.65;3.40;;;22.00;99.90;;;;;;5073420;28;20222;-65
2022/05/26 12:09:50;;;;;;;3.83;3.63;;;22.20;99.90;;;;;;5073030;28;20613;-65
2022/05/26 12:12:16;;;;;;;3.83;3.58;;;22.40;99.90;;;;;;5073668;28;20543;-65
2022/05/26 12:14:48;;;;;;;3.63;3.35;;;22.40;99.90;;;;;;5072709;28;20239;-65
2022/05/26 12:17:48;;;;;;;3.78;3.47;;;22.30;99.90;;;;;;5073159;28;20185;-65
2022/05/26 12:20:13;;;;;;;5.40;3.78;;;22.30;99.90;;;;;;5072981;28;20206;-65
2022/05/26 12:22:40;;;;;;;3.72;3.42;;;22.30;99.90;;;;;;5073134;28;20170;-65
2022/05/26 12:25:23;;;;;;;3.53;3.33;;;22.90;99.90;;;;;;5072935;28;20564;-65
2022/05/26 12:27:48;;;;;;;3.83;3.45;;;24.00;99.90;;;;;;5073021;28;20173;-65
2022/05/26 12:30:36;;;;;;;3.88;3.58;;;24.60;99.90;;;;;;5072952;28;20205;-65
2022/05/26 12:33:18;;;;;;;3.97;3.55;;;24.70;99.90;;;;;;5071725;28;20176;-66
2022/05/26 12:36:35;;;;;;;4.28;3.83;;;24.30;99.90;;;;;;5072392;28;20205;-65
2022/05/26 12:39:18;;;;;;;3.70;3.38;;;23.40;99.90;;;;;;5048609;28;20209;-66
2022/05/26 12:41:59;;;;;;;3.20;3.00;;;22.80;99.90;;;;;;5072194;28;20194;-66
2022/05/26 12:45:03;;;;;;;3.90;3.50;;;22.60;99.90;;;;;;5072073;28;20174;-66
2022/05/26 12:47:38;;;;;;;4.25;3.55;;;22.50;99.90;;;;;;5068257;28;20193;-65
2022/05/26 12:50:18;;;;;;;4.78;3.22;;;23.00;99.90;;;;;;5062775;28;20193;-65
2022/05/26 12:52:56;;;;;;;3.50;3.22;;;24.10;99.90;;;;;;5072563;28;20178;-66
2022/05/26 12:55:29;;;;;;;3.40;3.20;;;24.20;99.90;;;;;;5067757;28;20197;-66
2022/05/26 12:58:06;;;;;;;3.42;3.13;;;24.70;99.90;;;;;;5087390;28;20181;-65
2022/05/26 13:00:34;;;;;;;4.15;3.40;;;24.70;99.90;;;;;;5072158;28;20209;-65
2022/05/26 13:03:13;;;;;;;3.45;3.25;;;24.40;99.90;;;;;;5071639;28;20232;-65
2022/05/26 13:05:46;;;;;;;4.00;3.30;;;24.10;99.90;;;;;;5052153;28;20170;-66
2022/05/26 13:08:18;;;;;;;4.38;3.70;;;24.30;99.90;;;;;;5060477;28;20178;-65
2022/05/26 13:10:45;;;;;;;3.20;3.00;;;24.40;99.90;;;;;;5072130;28;20197;-66
2022/05/26 13:13:36;;;;;;;3.53;3.30;;;24.90;99.90;;;;;;5071707;28;20660;-64
2022/05/26 13:16:33;;;;;;;3.40;3.20;;;25.10;99.90;;;;;;5070383;28;20206;-65
2022/05/26 13:19:16;;;;;;;3.95;3.65;;;24.60;99.90;;;;;;5071462;28;20194;-65
2022/05/26 13:21:50;;;;;;;4.03;3.80;;;24.30;99.90;;;;;;5071676;28;20238;-65
2022/05/26 13:24:27;;;;;;;3.83;3.50;;;24.80;99.90;;;;;;5070496;28;20177;-66
2022/05/26 13:27:02;;;;;;;5.53;3.80;;;25.10;99.90;;;;;;5071224;28;20177;-66
2022/05/26 13:29:31;;;;;;;4.47;4.18;;;25.10;99.90;;;;;;5071700;28;20292;-65
2022/05/26 13:34:47;;;;;;;4.13;3.83;;;25.80;99.90;;;;;;5071278;28;20189;-65
2022/05/26 13:37:19;;;;;;;3.97;3.53;;;25.60;99.90;;;;;;5071628;28;20349;-65
2022/05/26 13:39:45;;;;;;;3.88;3.60;;;25.50;99.90;;;;;;5070872;28;20192;-65
2022/05/26 13:42:13;;;;;;;4.18;3.85;;;25.30;99.90;;;;;;5071702;28;20660;-65
2022/05/26 13:44:42;;;;;;;9.45;3.72;;;25.10;99.90;;;;;;5070005;28;20579;-66
2022/05/26 13:47:11;;;;;;;3.60;3.30;;;25.00;99.90;;;;;;5071802;28;20174;-65
2022/05/26 13:49:43;;;;;;;4.63;3.60;;;24.30;99.90;;;;;;5071276;28;20228;-65
2022/05/26 13:52:23;;;;;;;3.72;3.53;;;24.30;99.90;;;;;;5071496;28;20629;-65
2022/05/26 13:54:56;;;;;;;3.80;3.50;;;24.60;99.90;;;;;;5070262;28;20204;-65